createdAt,value
2023-03-01T00:01:43.909Z,101863.73
2023-03-01T00:04:11.799Z,101870.37
2023-03-01T00:06:39.675Z,101877.32
2023-03-01T00:09:07.841Z,101880.98
2023-03-01T00:11:35.906Z,101879.68
2023-03-01T00:14:06.083Z,101875.59
2023-03-01T00:16:39.743Z,101868.64
2023-03-01T00:19:09.299Z,101863.61
2023-03-01T00:21:37.202Z,101864.09
2023-03-01T00:24:05.666Z,101868.50
2023-03-01T00:26:33.572Z,101866.12
2023-03-01T00:29:01.945Z,101859.82
2023-03-01T00:31:32.467Z,101860.77
2023-03-01T00:34:03.716Z,101860.84
2023-03-01T00:36:34.956Z,101863.46
2023-03-01T00:39:05.292Z,101860.98
2023-03-01T00:41:35.102Z,101862.62
2023-03-01T00:44:03.157Z,101859.03
2023-03-01T00:46:32.001Z,101856.52
2023-03-01T00:49:03.091Z,101852.59
2023-03-01T00:51:32.194Z,101849.36
2023-03-01T00:54:02.219Z,101845.64
2023-03-01T00:56:31.597Z,101835.73
2023-03-01T00:58:59.677Z,101827.44
2023-03-01T06:19:33.528Z,101705.55
2023-03-01T06:22:01.269Z,101706.95
2023-03-01T06:24:30.054Z,101706.04
2023-03-01T06:26:57.953Z,101704.48
2023-03-01T06:29:25.708Z,101703.45
2023-03-01T06:31:53.788Z,101705.66
2023-03-01T06:34:22.836Z,101705.57
2023-03-01T06:36:50.696Z,101704.06
2023-03-01T06:39:19.208Z,101704.41
2023-03-01T06:41:47.067Z,101698.21
2023-03-01T06:44:14.983Z,101698.48
2023-03-01T06:46:42.875Z,101692.86
2023-03-01T06:49:10.724Z,101693.91
2023-03-01T06:51:38.748Z,101695.03
2023-03-01T06:54:06.831Z,101696.44
2023-03-01T06:56:34.874Z,101699.41
2023-03-01T06:59:06.486Z,101696.32
2023-03-01T07:01:34.565Z,101696.06
2023-03-01T07:04:02.484Z,101695.06
2023-03-01T07:06:30.631Z,101700.20
2023-03-01T07:08:58.814Z,101695.60
2023-03-01T07:11:26.685Z,101696.96
2023-03-01T07:13:54.505Z,101697.64
2023-03-01T07:16:22.681Z,101692.66
2023-03-01T07:18:50.655Z,101696.38
2023-03-01T07:21:18.373Z,101693.81
2023-03-01T07:23:49.944Z,101693.51
2023-03-01T07:26:19.374Z,101693.54
2023-03-01T07:28:47.362Z,101695.89
2023-03-01T07:31:15.721Z,101693.08
2023-03-01T07:33:43.462Z,101697.34
2023-03-01T07:36:13.888Z,101697.35
2023-03-01T07:38:41.604Z,101691.42
2023-03-01T07:41:09.533Z,101689.84
2023-03-01T07:43:37.303Z,101688.92
2023-03-01T07:46:05.701Z,101679.43
2023-03-01T07:48:39.129Z,101676.92
2023-03-01T07:51:11.103Z,101668.02
2023-03-01T07:53:39.248Z,101665.20
2023-03-01T07:56:09.556Z,101664.95
2023-03-01T07:58:39.698Z,101665.13
2023-03-01T08:01:09.791Z,101666.13
2023-03-01T08:03:38.361Z,101663.72
2023-03-01T08:06:08.498Z,101663.95
2023-03-01T08:08:36.886Z,101662.09
2023-03-01T08:11:51.245Z,101665.95
2023-03-01T08:14:54.269Z,101662.95
2023-03-01T08:17:24.293Z,101662.30
2023-03-01T08:19:52.201Z,101663.97
2023-03-01T08:22:20.099Z,101666.90
2023-03-01T08:24:48.051Z,101663.75
2023-03-01T08:27:17.532Z,101664.55
2023-03-01T08:29:45.443Z,101662.65
2023-03-01T08:32:13.452Z,101665.05
2023-03-01T08:34:42.560Z,101662.41
2023-03-01T08:37:11.055Z,101660.26
2023-03-01T08:39:38.869Z,101661.60
2023-03-01T08:42:06.617Z,101662.52
2023-03-01T08:44:36.083Z,101665.38
2023-03-01T08:47:05.484Z,101662.59
2023-03-01T08:49:33.832Z,101664.23
2023-03-01T08:52:03.440Z,101665.11
2023-03-01T08:54:31.615Z,101667.45
2023-03-01T08:57:00.274Z,101666.34
2023-03-01T08:59:28.203Z,101660.77
2023-03-01T09:01:56.044Z,101659.59
2023-03-01T09:04:24.020Z,101663.10
2023-03-01T09:06:51.914Z,101671.80
2023-03-01T09:09:19.767Z,101674.59
2023-03-01T09:11:48.130Z,101671.17
2023-03-01T09:14:16.013Z,101676.33
2023-03-01T09:16:44.236Z,101679.73
2023-03-01T09:19:12.751Z,101681.30
2023-03-01T09:21:41.433Z,101680.66
2023-03-01T09:24:15.791Z,101686.11
2023-03-01T09:26:44.189Z,101686.17
2023-03-01T09:29:11.988Z,101682.70
2023-03-01T09:31:40.072Z,101673.04
2023-03-01T09:34:09.016Z,101672.77
2023-03-01T09:36:36.917Z,101675.64
2023-03-01T09:39:07.055Z,101671.05
2023-03-01T09:41:48.740Z,101665.27
2023-03-01T09:44:28.777Z,101661.70
2023-03-01T09:46:58.278Z,101658.29
2023-03-01T09:49:31.603Z,101657.37
2023-03-01T09:52:20.358Z,101648.33
2023-03-01T09:54:53.971Z,101644.52
2023-03-01T09:57:29.583Z,101643.29
2023-03-01T10:00:07.380Z,101641.01
2023-03-01T10:03:00.645Z,101637.86
2023-03-01T10:05:56.458Z,101637.98
2023-03-01T10:08:37.573Z,101641.92
2023-03-01T10:11:22.132Z,101637.38
2023-03-01T10:14:15.651Z,101631.58
2023-03-01T10:16:53.784Z,101628.92
2023-03-01T10:19:29.450Z,101624.05
2023-03-01T10:22:03.883Z,101622.23
2023-03-01T10:24:36.369Z,101617.25
2023-03-01T10:27:27.464Z,101611.02
2023-03-01T10:30:28.902Z,101609.43
2023-03-01T10:32:58.436Z,101602.11
2023-03-01T10:35:29.884Z,101597.54
2023-03-01T10:38:05.507Z,101594.89
2023-03-01T10:40:35.397Z,101594.43
2023-03-01T10:43:06.215Z,101591.27
2023-03-01T10:45:39.698Z,101591.23
2023-03-01T10:48:20.483Z,101592.94
2023-03-01T10:50:52.260Z,101592.71
2023-03-01T10:53:26.014Z,101589.71
2023-03-01T10:56:23.506Z,101587.60
2023-03-01T10:59:01.764Z,101589.59
2023-03-01T11:01:36.871Z,101584.39
2023-03-01T11:04:07.528Z,101583.88
2023-03-01T11:06:37.197Z,101584.31
2023-03-01T11:09:17.425Z,101583.05
2023-03-01T11:11:45.757Z,101574.73
2023-03-01T11:14:37.851Z,101575.02
2023-03-01T11:17:14.149Z,101574.98
2023-03-01T11:19:45.218Z,101571.89
2023-03-01T11:22:22.386Z,101561.49
2023-03-01T11:25:09.088Z,101561.36
2023-03-01T11:27:44.384Z,101558.23
2023-03-01T11:30:28.385Z,101564.02
2023-03-01T11:33:05.465Z,101565.48
2023-03-01T11:35:36.856Z,101559.06
2023-03-01T11:38:26.431Z,101557.94
2023-03-01T11:41:25.692Z,101548.35
2023-03-01T11:44:12.987Z,101542.42
2023-03-01T11:47:08.848Z,101544.40
2023-03-01T11:49:48.854Z,101544.45
2023-03-01T11:52:19.378Z,101546.41
2023-03-01T11:55:19.072Z,101539.34
2023-03-01T11:57:46.850Z,101544.17
2023-03-01T12:00:26.918Z,101547.17
2023-03-01T12:03:07.894Z,101543.02
2023-03-01T12:05:54.134Z,101546.88
2023-03-01T12:08:31.250Z,101547.99
2023-03-01T12:11:22.409Z,101552.77
2023-03-01T12:13:52.945Z,101552.23
2023-03-01T12:16:53.885Z,101552.72
2023-03-01T12:19:53.954Z,101549.04
2023-03-01T12:22:32.419Z,101544.77
2023-03-01T12:25:00.210Z,101547.55
2023-03-01T12:27:31.087Z,101545.17
2023-03-01T12:30:01.886Z,101545.08
2023-03-01T12:33:03.358Z,101547.13
2023-03-01T12:35:36.919Z,101540.48
2023-03-01T12:38:42.181Z,101538.11
2023-03-01T12:41:29.110Z,101542.35
2023-03-01T12:44:32.840Z,101538.88
2023-03-01T12:47:00.536Z,101538.51
2023-03-01T12:49:56.371Z,101536.75
2023-03-01T12:52:27.249Z,101530.20
2023-03-01T12:54:57.491Z,101526.77
2023-03-01T12:57:38.435Z,101525.20
2023-03-01T13:00:08.977Z,101520.88
2023-03-01T13:02:55.334Z,101514.98
2023-03-01T13:05:49.130Z,101516.17
2023-03-01T13:08:21.579Z,101512.33
2023-03-01T13:11:06.810Z,101514.39
2023-03-01T13:13:34.588Z,101512.23
2023-03-01T13:16:41.123Z,101508.17
2023-03-01T13:19:17.127Z,101504.77
2023-03-01T13:21:46.767Z,101499.27
2023-03-01T13:24:29.959Z,101501.53
2023-03-01T13:27:16.522Z,101502.39
2023-03-01T13:29:50.216Z,101499.71
2023-03-01T13:32:34.323Z,101495.83
2023-03-01T13:35:16.119Z,101492.11
2023-03-01T13:37:45.454Z,101489.77
2023-03-01T13:40:20.589Z,101483.41
2023-03-01T13:43:05.380Z,101482.32
2023-03-01T13:45:40.137Z,101480.44
2023-03-01T13:48:16.540Z,101478.80
2023-03-01T13:50:53.159Z,101478.05
2023-03-01T13:53:24.419Z,101475.13
2023-03-01T13:55:57.043Z,101471.11
2023-03-01T13:58:31.924Z,101472.12
2023-03-01T14:01:09.793Z,101471.84
2023-03-01T14:03:43.024Z,101473.95
2023-03-01T14:06:21.863Z,101472.37
2023-03-01T14:08:53.314Z,101472.39
2023-03-01T14:11:39.720Z,101466.23
2023-03-01T14:14:46.255Z,101470.95
2023-03-01T14:17:38.060Z,101469.23
2023-03-01T14:20:33.463Z,101468.52
2023-03-01T14:23:09.929Z,101468.58
2023-03-01T14:25:39.842Z,101461.98
2023-03-01T14:28:24.249Z,101453.66
2023-03-01T14:30:54.927Z,101453.84
2023-03-01T14:33:30.203Z,101453.19
2023-03-01T14:36:13.429Z,101447.44
2023-03-01T14:38:47.854Z,101444.11
2023-03-01T14:41:21.170Z,101443.19
2023-03-01T14:43:53.519Z,101447.56
2023-03-01T14:46:33.438Z,101444.41
2023-03-01T14:49:21.150Z,101441.87
2023-03-01T14:52:05.299Z,101441.95
2023-03-01T14:54:44.033Z,101437.91
2023-03-01T14:57:22.711Z,101435.02
2023-03-01T14:59:56.305Z,101433.38
2023-03-01T15:02:29.142Z,101432.94
2023-03-01T15:05:08.090Z,101436.21
2023-03-01T15:07:41.195Z,101433.91
2023-03-01T15:10:20.676Z,101431.84
2023-03-01T15:12:48.794Z,101431.86
2023-03-01T15:15:37.997Z,101432.93
2023-03-01T15:18:16.798Z,101430.58
2023-03-01T15:20:45.619Z,101427.44
2023-03-01T15:23:30.136Z,101425.01
2023-03-01T15:25:59.411Z,101418.35
2023-03-01T15:28:30.632Z,101420.73
2023-03-01T15:31:20.741Z,101419.87
2023-03-01T15:33:49.040Z,101415.45
2023-03-01T15:36:41.812Z,101407.88
2023-03-01T15:39:28.186Z,101412.84
2023-03-01T15:41:56.562Z,101414.59
2023-03-01T15:44:35.031Z,101418.09
2023-03-01T15:47:24.541Z,101413.21
2023-03-01T15:49:55.848Z,101417.33
2023-03-01T15:52:30.150Z,101412.37
2023-03-01T15:55:03.814Z,101420.43
2023-03-01T15:57:31.803Z,101422.27
2023-03-01T15:59:59.754Z,101419.10
2023-03-01T16:02:27.574Z,101412.48
2023-03-01T16:04:57.676Z,101409.27
2023-03-01T16:07:27.968Z,101405.58
2023-03-01T16:09:55.925Z,101406.98
2023-03-01T16:12:25.270Z,101401.17
2023-03-01T16:14:55.002Z,101397.03
2023-03-01T16:17:23.030Z,101399.88
2023-03-01T16:19:51.094Z,101401.49
2023-03-01T16:22:22.127Z,101402.34
2023-03-01T16:24:49.941Z,101409.07
2023-03-01T16:27:17.778Z,101410.85
2023-03-01T16:29:45.560Z,101412.59
2023-03-01T16:32:13.345Z,101408.23
2023-03-01T16:34:41.557Z,101409.25
2023-03-01T16:37:09.320Z,101405.65
2023-03-01T16:39:39.780Z,101407.59
2023-03-01T16:42:07.730Z,101406.48
2023-03-01T16:44:35.577Z,101406.05
2023-03-01T16:47:03.447Z,101406.41
2023-03-01T16:49:31.309Z,101406.44
2023-03-01T16:52:00.404Z,101406.19
2023-03-01T16:54:28.207Z,101407.87
2023-03-01T16:56:56.396Z,101409.14
2023-03-01T16:59:24.322Z,101408.43
2023-03-01T17:01:52.355Z,101412.91
2023-03-01T17:04:20.343Z,101413.27
2023-03-01T17:06:49.647Z,101414.86
2023-03-01T17:09:18.262Z,101419.54
2023-03-01T17:11:46.107Z,101418.55
2023-03-01T17:14:13.891Z,101416.31
2023-03-01T17:16:41.783Z,101420.95
2023-03-01T17:19:09.760Z,101422.33
2023-03-01T17:21:38.088Z,101423.16
2023-03-01T17:24:06.154Z,101432.85
2023-03-01T17:26:34.032Z,101436.05
2023-03-01T17:29:02.498Z,101437.55
2023-03-01T17:31:30.600Z,101431.48
2023-03-01T17:34:01.185Z,101427.78
2023-03-01T17:36:29.467Z,101428.59
2023-03-01T17:38:57.333Z,101432.08
2023-03-01T17:41:25.298Z,101432.33
2023-03-01T17:43:53.060Z,101431.23
2023-03-01T17:46:20.972Z,101429.17
2023-03-01T17:48:50.230Z,101432.02
2023-03-01T17:51:18.189Z,101429.67
2023-03-01T17:53:46.157Z,101430.36
2023-03-01T17:56:14.031Z,101427.20
2023-03-01T17:58:44.972Z,101425.72
2023-03-01T18:01:15.915Z,101420.77
2023-03-01T18:03:46.577Z,101422.30
2023-03-01T18:06:18.920Z,101425.33
2023-03-01T18:08:48.926Z,101430.70
2023-03-01T18:11:18.945Z,101432.18
2023-03-01T18:13:47.905Z,101431.63
2023-03-01T18:16:17.531Z,101426.10
2023-03-01T18:18:46.338Z,101425.26
2023-03-01T18:21:14.710Z,101425.59
2023-03-01T18:23:42.578Z,101427.52
2023-03-01T18:26:13.126Z,101424.95
2023-03-01T18:28:40.870Z,101423.27
2023-03-01T18:31:13.506Z,101424.49
2023-03-01T18:33:41.614Z,101423.41
2023-03-01T18:36:19.332Z,101422.61
2023-03-01T18:38:48.034Z,101418.43
2023-03-01T18:41:16.688Z,101411.77
2023-03-01T18:43:44.645Z,101407.81
2023-03-01T18:46:12.578Z,101408.30
2023-03-01T18:48:40.687Z,101409.46
2023-03-01T18:51:12.493Z,101409.27
2023-03-01T18:53:40.619Z,101410.04
2023-03-01T18:56:09.920Z,101407.05
2023-03-01T18:58:38.734Z,101400.83
2023-03-01T19:01:08.368Z,101401.52
2023-03-01T19:03:36.333Z,101401.95
2023-03-01T19:06:05.372Z,101400.66
2023-03-01T19:08:33.338Z,101399.92
2023-03-01T19:11:03.977Z,101405.19
2023-03-01T19:13:34.085Z,101404.25
2023-03-01T19:16:14.212Z,101412.09
2023-03-01T19:18:50.275Z,101416.56
2023-03-01T19:21:20.319Z,101418.48
2023-03-01T19:23:49.342Z,101424.20
2023-03-01T19:26:20.046Z,101426.03
2023-03-01T19:28:48.635Z,101429.91
2023-03-01T19:31:20.014Z,101433.75
2023-03-01T19:33:47.930Z,101437.13
2023-03-01T19:36:16.418Z,101437.78
2023-03-01T19:38:44.304Z,101437.48
2023-03-01T19:41:15.731Z,101435.77
2023-03-01T19:43:45.026Z,101431.73
2023-03-01T19:46:13.796Z,101435.52
2023-03-01T19:48:41.947Z,101442.59
2023-03-01T19:51:09.896Z,101440.45
2023-03-01T19:53:39.966Z,101443.09
2023-03-01T19:56:09.049Z,101441.34
2023-03-01T19:58:39.058Z,101436.77
2023-03-01T20:01:15.711Z,101439.34
2023-03-01T20:03:44.227Z,101438.70
2023-03-01T20:06:18.851Z,101439.39
2023-03-01T20:08:46.724Z,101441.91
2023-03-01T20:11:16.631Z,101448.77
2023-03-01T20:13:45.009Z,101444.95
2023-03-01T20:16:17.737Z,101438.58
2023-03-01T20:18:45.903Z,101438.46
2023-03-01T20:21:24.456Z,101445.92
2023-03-01T20:23:53.829Z,101452.45
2023-03-01T20:26:23.340Z,101449.64
2023-03-01T20:28:54.227Z,101450.83
2023-03-01T20:31:28.829Z,101458.86
2023-03-01T20:34:00.206Z,101457.66
2023-03-01T20:36:28.406Z,101460.58
2023-03-01T20:38:56.580Z,101460.55
2023-03-01T20:41:28.733Z,101459.77
2023-03-01T20:43:58.768Z,101454.87
2023-03-01T20:46:27.583Z,101448.66
2023-03-01T20:48:55.380Z,101445.90
2023-03-01T20:51:23.756Z,101453.21
2023-03-01T20:53:52.057Z,101455.39
2023-03-01T20:56:21.746Z,101452.63
2023-03-01T20:58:50.121Z,101453.83
2023-03-01T21:01:21.467Z,101454.10
2023-03-01T21:03:49.370Z,101450.02
2023-03-01T21:06:17.708Z,101441.71
2023-03-01T21:08:45.780Z,101444.35
2023-03-01T21:11:13.577Z,101445.38
2023-03-01T21:13:41.920Z,101446.81
2023-03-01T21:16:14.055Z,101451.54
2023-03-01T21:18:42.358Z,101451.61
2023-03-01T21:21:13.340Z,101447.34
2023-03-01T21:23:42.614Z,101444.77
2023-03-01T21:26:12.178Z,101445.56
2023-03-01T21:28:41.295Z,101441.13
2023-03-01T21:31:17.753Z,101443.73
2023-03-01T21:33:51.332Z,101446.10
2023-03-01T21:36:20.154Z,101444.61
2023-03-01T21:38:49.352Z,101445.14
2023-03-01T21:41:21.189Z,101441.56
2023-03-01T21:43:49.736Z,101437.61
2023-03-01T21:46:20.629Z,101438.40
2023-03-01T21:48:50.848Z,101434.65
2023-03-01T21:51:21.373Z,101434.77
2023-03-01T21:53:50.885Z,101435.77
2023-03-01T21:56:21.612Z,101435.95
2023-03-01T21:58:50.399Z,101434.84
2023-03-01T22:01:21.848Z,101431.96
2023-03-01T22:03:49.750Z,101432.71
2023-03-01T22:06:22.788Z,101432.37
2023-03-01T22:08:53.780Z,101427.79
2023-03-01T22:11:24.145Z,101423.75
2023-03-01T22:13:53.039Z,101424.00
2023-03-01T22:16:24.213Z,101425.02
2023-03-01T22:18:52.373Z,101421.85
2023-03-01T22:21:21.552Z,101420.74
2023-03-01T22:23:49.388Z,101415.98
2023-03-01T22:26:41.895Z,101415.36
2023-03-01T22:29:12.805Z,101416.70
2023-03-01T22:31:41.437Z,101420.27
2023-03-01T22:34:10.094Z,101424.70
2023-03-01T22:36:39.464Z,101420.25
2023-03-01T22:39:08.369Z,101418.42
2023-03-01T22:41:44.838Z,101418.98
2023-03-01T22:44:15.087Z,101415.97
2023-03-01T22:46:43.668Z,101413.17
2023-03-01T22:49:12.167Z,101414.67
2023-03-01T22:51:42.546Z,101414.64
2023-03-01T22:54:11.417Z,101413.40
2023-03-01T22:56:40.730Z,101412.63
2023-03-01T22:59:12.285Z,101414.38
2023-03-01T23:01:41.381Z,101416.95
2023-03-01T23:04:09.285Z,101418.73
2023-03-01T23:06:50.464Z,101414.71
2023-03-01T23:09:21.946Z,101411.40
2023-03-01T23:11:50.960Z,101408.64
2023-03-01T23:14:19.706Z,101412.90
2023-03-01T23:16:48.751Z,101416.02
2023-03-01T23:19:16.853Z,101416.11
2023-03-01T23:21:50.019Z,101418.54
2023-03-01T23:24:19.755Z,101419.58
2023-03-01T23:26:53.528Z,101418.40
2023-03-01T23:29:22.621Z,101416.95
2023-03-01T23:31:50.766Z,101412.90
2023-03-01T23:34:19.374Z,101414.11
2023-03-01T23:36:47.254Z,101411.38
2023-03-01T23:39:15.101Z,101408.84
2023-03-01T23:41:43.073Z,101406.49
2023-03-01T23:44:15.232Z,101411.04
2023-03-01T23:46:43.830Z,101416.43
2023-03-01T23:49:14.112Z,101415.61
2023-03-01T23:51:44.766Z,101415.83
2023-03-01T23:54:14.681Z,101416.90
2023-03-01T23:56:43.884Z,101418.55
2023-03-01T23:59:18.916Z,101420.00
